createdAt,value
2022-11-11T00:01:17.640Z,17.67
2022-11-11T00:03:44.681Z,17.27
2022-11-11T00:06:15.511Z,17.37
2022-11-11T00:08:43.116Z,17.63
2022-11-11T00:11:13.268Z,18.47
2022-11-11T00:13:41.739Z,17.90
2022-11-11T00:16:20.359Z,18.67
2022-11-11T00:19:06.062Z,19.13
2022-11-11T00:21:39.057Z,19.50
2022-11-11T00:24:47.639Z,23.17
2022-11-11T00:27:16.738Z,21.90
2022-11-11T00:29:47.453Z,21.90
2022-11-11T00:32:23.823Z,22.50
2022-11-11T00:35:11.634Z,23.00
2022-11-11T00:37:40.954Z,22.60
2022-11-11T00:40:09.689Z,24.07
2022-11-11T00:42:36.905Z,23.00
2022-11-11T00:45:04.624Z,22.77
2022-11-11T00:47:50.044Z,24.30
2022-11-11T00:50:47.796Z,24.83
2022-11-11T00:53:25.070Z,23.80
2022-11-11T00:55:54.353Z,23.23
2022-11-11T00:58:23.323Z,25.67
2022-11-11T01:00:53.766Z,23.40
2022-11-11T01:03:22.465Z,24.30
2022-11-11T01:05:49.775Z,22.57
2022-11-11T01:08:16.944Z,22.00
2022-11-11T01:10:44.775Z,23.00
2022-11-11T01:13:29.855Z,22.57
2022-11-11T01:16:07.327Z,22.33
2022-11-11T01:18:34.548Z,21.60
2022-11-11T01:21:10.414Z,21.20
2022-11-11T01:23:40.747Z,21.70
2022-11-11T01:26:30.298Z,22.30
2022-11-11T01:28:58.014Z,22.00
2022-11-11T01:31:27.421Z,23.07
2022-11-11T01:33:54.845Z,22.03
2022-11-11T01:36:26.030Z,24.10
2022-11-11T01:38:56.662Z,22.67
2022-11-11T01:41:34.153Z,23.70
2022-11-11T01:44:13.867Z,21.23
2022-11-11T01:46:53.347Z,21.83
2022-11-11T01:49:39.550Z,21.97
2022-11-11T01:52:24.928Z,21.90
2022-11-11T01:55:04.089Z,22.13
2022-11-11T01:57:40.262Z,20.83
2022-11-11T02:00:11.885Z,20.80
2022-11-11T02:02:52.661Z,21.40
2022-11-11T02:05:40.929Z,21.93
2022-11-11T02:08:34.443Z,21.90
2022-11-11T02:11:13.925Z,21.37
2022-11-11T02:14:02.113Z,22.97
2022-11-11T02:16:29.591Z,22.20
2022-11-11T02:18:57.000Z,21.47
2022-11-11T02:21:38.248Z,23.03
2022-11-11T02:24:12.402Z,21.80
2022-11-11T02:26:40.375Z,22.57
2022-11-11T02:29:17.566Z,22.57
2022-11-11T02:31:44.715Z,21.73
2022-11-11T02:34:11.689Z,21.90
2022-11-11T02:36:39.980Z,21.20
2022-11-11T02:39:07.035Z,22.10
2022-11-11T02:41:52.496Z,22.13
2022-11-11T02:44:19.538Z,23.10
2022-11-11T02:46:46.716Z,21.83
2022-11-11T02:49:13.721Z,21.93
2022-11-11T02:51:40.705Z,21.23
2022-11-11T02:54:07.909Z,21.77
2022-11-11T02:56:53.167Z,19.83
2022-11-11T02:59:22.307Z,21.27
2022-11-11T03:01:49.357Z,21.43
2022-11-11T03:04:16.626Z,20.07
2022-11-11T03:06:43.845Z,20.37
2022-11-11T03:09:10.911Z,21.77
2022-11-11T03:11:38.588Z,20.93
2022-11-11T03:14:05.707Z,20.73
2022-11-11T03:16:51.143Z,21.10
2022-11-11T03:19:18.254Z,21.40
2022-11-11T03:24:50.682Z,21.27
2022-11-11T03:27:17.603Z,21.37
2022-11-11T03:29:44.554Z,21.27
2022-11-11T03:32:11.634Z,23.10
2022-11-11T03:34:38.865Z,22.70
2022-11-11T03:37:27.883Z,22.23
2022-11-11T03:39:54.976Z,21.47
2022-11-11T03:42:22.051Z,22.27
2022-11-11T03:44:48.917Z,21.80
2022-11-11T03:47:16.408Z,22.27
2022-11-11T03:49:45.849Z,23.13
2022-11-11T03:52:14.007Z,22.27
2022-11-11T03:54:40.994Z,21.53
2022-11-11T03:57:26.228Z,20.60
2022-11-11T03:59:53.151Z,19.87
2022-11-11T04:02:38.997Z,19.83
2022-11-11T04:05:25.149Z,20.10
2022-11-11T04:08:10.697Z,19.73
2022-11-11T04:10:37.970Z,18.60
2022-11-11T04:13:24.600Z,19.87
2022-11-11T04:16:06.526Z,19.70
2022-11-11T04:18:55.846Z,17.83
2022-11-11T04:21:43.051Z,17.63
2022-11-11T04:24:29.717Z,18.97
2022-11-11T04:26:59.504Z,17.63
2022-11-11T04:29:29.859Z,18.33
2022-11-11T04:32:20.815Z,18.30
2022-11-11T04:34:54.007Z,17.43
2022-11-11T04:37:22.368Z,17.90
2022-11-11T04:40:08.657Z,17.63
2022-11-11T04:42:35.916Z,18.37
2022-11-11T04:45:22.594Z,18.17
2022-11-11T04:48:10.854Z,18.63
2022-11-11T04:50:43.200Z,18.83
2022-11-11T04:53:15.218Z,18.30
2022-11-11T04:56:03.097Z,17.53
2022-11-11T04:58:35.722Z,17.37
2022-11-11T05:01:03.108Z,16.80
2022-11-11T05:03:30.054Z,16.63
2022-11-11T05:06:19.725Z,16.67
2022-11-11T05:08:59.279Z,17.00
2022-11-11T05:11:30.653Z,16.13
2022-11-11T05:14:18.505Z,16.13
2022-11-11T05:17:17.899Z,17.37
2022-11-11T05:20:02.893Z,16.47
2022-11-11T05:22:33.529Z,16.87
2022-11-11T05:25:18.699Z,17.03
2022-11-11T05:27:45.937Z,16.10
2022-11-11T05:30:15.795Z,15.37
2022-11-11T05:32:43.521Z,16.33
2022-11-11T05:35:12.471Z,17.07
2022-11-11T05:37:39.773Z,16.20
2022-11-11T05:40:08.756Z,16.87
2022-11-11T05:42:37.267Z,17.37
2022-11-11T05:45:07.890Z,15.53
2022-11-11T05:47:35.411Z,15.00
2022-11-11T05:50:02.330Z,13.73
2022-11-11T05:52:29.240Z,15.00
2022-11-11T05:54:56.179Z,14.33
2022-11-11T05:57:23.131Z,14.00
2022-11-11T05:59:50.267Z,14.07
2022-11-11T06:02:17.270Z,13.40
2022-11-11T06:04:44.246Z,14.33
2022-11-11T06:07:11.155Z,13.30
2022-11-11T06:09:38.077Z,12.60
2022-11-11T06:12:05.206Z,12.70
2022-11-11T06:14:32.115Z,12.97
2022-11-11T06:16:59.085Z,13.37
2022-11-11T06:19:25.971Z,13.37
2022-11-11T06:21:58.638Z,13.13
2022-11-11T06:24:26.819Z,12.47
2022-11-11T06:26:55.653Z,13.27
2022-11-11T06:29:23.339Z,12.50
2022-11-11T06:31:51.072Z,13.47
2022-11-11T06:34:17.967Z,12.87
2022-11-11T06:36:45.163Z,14.23
2022-11-11T06:39:12.075Z,13.57
2022-11-11T06:41:38.924Z,14.13
2022-11-11T06:44:05.826Z,14.83
2022-11-11T06:46:32.727Z,15.67
2022-11-11T06:48:59.684Z,16.03
2022-11-11T06:51:26.624Z,16.83
2022-11-11T06:53:53.548Z,18.27
2022-11-11T06:56:20.465Z,18.47
2022-11-11T06:58:47.477Z,18.87
2022-11-11T07:01:14.587Z,18.83
2022-11-11T07:03:41.546Z,18.03
2022-11-11T07:06:08.514Z,17.87
2022-11-11T07:08:35.495Z,16.57
2022-11-11T07:11:11.237Z,17.73
2022-11-11T07:13:41.168Z,18.17
2022-11-11T07:16:08.720Z,17.80
2022-11-11T07:18:35.586Z,16.50
2022-11-11T07:21:02.526Z,15.57
2022-11-11T07:23:29.433Z,15.90
2022-11-11T07:25:56.509Z,15.20
2022-11-11T07:28:23.878Z,15.13
2022-11-11T07:30:51.024Z,15.73
2022-11-11T07:33:23.129Z,16.63
2022-11-11T07:35:51.355Z,17.27
2022-11-11T07:38:18.272Z,14.17
2022-11-11T07:40:45.152Z,15.00
2022-11-11T07:43:12.036Z,14.17
2022-11-11T07:45:39.189Z,14.13
2022-11-11T07:48:06.282Z,14.57
2022-11-11T07:50:33.236Z,14.30
2022-11-11T07:53:00.159Z,13.77
2022-11-11T07:55:27.075Z,13.70
2022-11-11T07:57:54.169Z,14.27
2022-11-11T08:00:21.216Z,13.87
2022-11-11T08:02:55.114Z,13.53
2022-11-11T08:05:24.881Z,12.20
2022-11-11T08:07:51.825Z,12.60
2022-11-11T08:10:18.768Z,13.00
2022-11-11T08:13:04.718Z,12.87
2022-11-11T08:15:31.648Z,11.93
2022-11-11T08:17:58.535Z,11.60
2022-11-11T08:20:25.874Z,11.57
2022-11-11T08:23:24.659Z,11.43
2022-11-11T08:25:42.953Z,11.50
2022-11-11T08:28:16.277Z,10.73
2022-11-11T08:30:43.233Z,12.00
2022-11-11T08:33:32.433Z,11.07
2022-11-11T08:36:00.349Z,11.07
2022-11-11T08:38:27.995Z,10.50
2022-11-11T08:40:55.188Z,10.47
2022-11-11T08:43:23.551Z,10.33
2022-11-11T08:45:53.996Z,9.63
2022-11-11T08:48:21.430Z,10.23
2022-11-11T08:50:49.580Z,9.90
2022-11-11T08:53:16.863Z,9.67
2022-11-11T08:55:43.787Z,8.93
2022-11-11T08:58:12.443Z,9.57
2022-11-11T09:00:42.512Z,9.53
2022-11-11T09:03:12.349Z,8.50
2022-11-11T09:05:40.630Z,8.13
2022-11-11T09:08:08.691Z,7.53
2022-11-11T09:10:37.274Z,7.47
2022-11-11T09:13:05.777Z,8.20
2022-11-11T09:15:33.660Z,7.07
2022-11-11T09:18:01.704Z,7.10
2022-11-11T09:20:29.472Z,6.70
2022-11-11T09:22:56.785Z,7.00
2022-11-11T09:25:23.926Z,7.00
2022-11-11T09:28:01.167Z,6.70
2022-11-11T09:30:29.362Z,5.80
2022-11-11T09:33:02.927Z,5.97
2022-11-11T09:35:30.089Z,6.40
2022-11-11T09:37:59.725Z,6.13
2022-11-11T09:40:44.845Z,5.90
2022-11-11T09:43:23.958Z,4.83
2022-11-11T09:46:21.218Z,5.90
2022-11-11T09:49:33.336Z,6.50
2022-11-11T09:52:21.273Z,5.63
2022-11-11T09:55:33.979Z,6.03
2022-11-11T09:58:08.945Z,6.23
2022-11-11T10:00:38.070Z,4.97
2022-11-11T10:03:10.922Z,5.27
2022-11-11T10:06:01.228Z,5.67
2022-11-11T10:09:02.419Z,5.00
2022-11-11T10:11:35.034Z,5.20
2022-11-11T10:14:02.643Z,6.00
2022-11-11T10:17:04.840Z,5.20
2022-11-11T10:19:57.315Z,4.63
2022-11-11T10:22:34.994Z,5.27
2022-11-11T10:25:13.872Z,4.27
2022-11-11T10:27:47.417Z,5.30
2022-11-11T10:30:28.677Z,5.27
2022-11-11T10:33:03.744Z,5.33
2022-11-11T10:35:33.631Z,5.60
2022-11-11T10:38:07.007Z,5.90
2022-11-11T10:40:53.576Z,5.40
2022-11-11T10:43:24.807Z,5.67
2022-11-11T10:46:14.262Z,5.67
2022-11-11T10:49:01.261Z,5.30
2022-11-11T10:51:33.138Z,5.80
2022-11-11T10:54:03.123Z,5.73
2022-11-11T10:56:46.130Z,5.57
2022-11-11T10:59:21.727Z,5.40
2022-11-11T11:02:28.327Z,5.57
2022-11-11T11:05:05.706Z,5.40
2022-11-11T11:07:56.903Z,5.37
2022-11-11T11:10:37.877Z,5.73
2022-11-11T11:13:08.165Z,5.50
2022-11-11T11:15:40.574Z,5.27
2022-11-11T11:18:17.254Z,6.00
2022-11-11T11:21:08.051Z,5.50
2022-11-11T11:23:46.317Z,5.37
2022-11-11T11:26:14.901Z,5.17
2022-11-11T11:29:01.780Z,4.50
2022-11-11T11:31:41.004Z,4.77
2022-11-11T11:34:08.735Z,5.50
2022-11-11T11:36:35.706Z,5.10
2022-11-11T11:39:02.655Z,5.50
2022-11-11T11:41:44.885Z,5.23
2022-11-11T11:44:33.194Z,4.83
2022-11-11T11:48:24.101Z,4.73
2022-11-11T11:50:56.561Z,4.63
2022-11-11T11:53:57.038Z,4.87
2022-11-11T11:56:37.940Z,4.90
2022-11-11T11:59:23.908Z,5.03
2022-11-11T12:02:30.958Z,4.83
2022-11-11T12:05:30.830Z,5.20
2022-11-11T12:08:22.784Z,4.47
2022-11-11T12:10:55.167Z,4.93
2022-11-11T12:14:05.747Z,4.80
2022-11-11T12:16:46.257Z,4.53
2022-11-11T12:20:07.525Z,4.33
2022-11-11T12:23:01.687Z,4.40
2022-11-11T12:26:10.015Z,5.00
2022-11-11T12:29:01.520Z,4.80
2022-11-11T12:31:40.475Z,5.03
2022-11-11T12:34:33.593Z,5.43
2022-11-11T12:37:55.905Z,4.60
2022-11-11T12:41:02.907Z,5.00
2022-11-11T12:43:57.727Z,4.67
2022-11-11T12:47:07.418Z,4.43
2022-11-11T12:50:28.517Z,4.30
2022-11-11T12:53:31.249Z,5.00
2022-11-11T12:56:46.835Z,5.23
2022-11-11T12:59:30.388Z,5.60
2022-11-11T13:02:46.961Z,5.23
2022-11-11T13:05:33.985Z,4.43
2022-11-11T13:08:51.279Z,5.17
2022-11-11T13:11:43.990Z,5.30
2022-11-11T13:15:25.185Z,5.80
2022-11-11T13:17:52.763Z,5.87
2022-11-11T13:20:57.881Z,5.40
2022-11-11T13:23:25.579Z,5.40
2022-11-11T13:26:03.280Z,6.30
2022-11-11T13:28:44.995Z,6.40
2022-11-11T13:31:35.352Z,6.17
2022-11-11T13:34:12.028Z,6.47
2022-11-11T13:36:50.279Z,6.80
2022-11-11T13:39:40.115Z,6.63
2022-11-11T13:42:10.193Z,6.67
2022-11-11T13:44:51.535Z,6.53
2022-11-11T13:47:24.531Z,5.90
2022-11-11T13:49:58.935Z,6.57
2022-11-11T13:52:34.138Z,6.03
2022-11-11T13:55:26.451Z,6.40
2022-11-11T13:57:53.941Z,6.10
2022-11-11T14:00:29.048Z,6.53
2022-11-11T14:03:19.982Z,5.97
2022-11-11T14:05:47.092Z,5.90
2022-11-11T14:08:46.465Z,6.37
2022-11-11T14:11:25.553Z,5.93
2022-11-11T14:13:55.013Z,6.33
2022-11-11T14:16:36.931Z,6.87
2022-11-11T14:19:18.482Z,7.17
2022-11-11T14:22:02.023Z,6.87
2022-11-11T14:24:44.920Z,6.50
2022-11-11T14:27:11.688Z,7.27
2022-11-11T14:29:49.150Z,7.00
2022-11-11T14:32:48.975Z,5.87
2022-11-11T14:35:39.780Z,6.17
2022-11-11T14:38:30.692Z,6.00
2022-11-11T14:40:57.622Z,6.27
2022-11-11T14:43:38.102Z,5.80
2022-11-11T14:46:18.843Z,6.33
2022-11-11T14:48:53.057Z,6.00
2022-11-11T14:51:44.047Z,6.20
2022-11-11T14:54:54.745Z,6.00
2022-11-11T14:57:45.509Z,5.40
2022-11-11T15:00:19.041Z,6.10
2022-11-11T15:03:02.425Z,6.00
2022-11-11T15:05:53.413Z,5.90
2022-11-11T15:08:26.068Z,5.67
2022-11-11T15:11:34.012Z,6.30
2022-11-11T15:14:19.490Z,6.03
2022-11-11T15:17:27.108Z,6.33
2022-11-11T15:20:06.035Z,6.70
2022-11-11T15:22:40.389Z,6.83
2022-11-11T15:25:44.324Z,7.23
2022-11-11T15:28:48.758Z,7.90
2022-11-11T15:31:42.750Z,7.90
2022-11-11T15:34:28.222Z,8.53
2022-11-11T15:37:06.476Z,8.40
2022-11-11T15:39:47.485Z,7.87
2022-11-11T15:42:28.585Z,8.90
2022-11-11T15:44:56.553Z,8.37
2022-11-11T15:47:24.738Z,8.73
2022-11-11T15:49:52.186Z,9.03
2022-11-11T15:52:32.201Z,9.60
2022-11-11T15:55:01.423Z,10.07
2022-11-11T15:57:35.526Z,11.43
2022-11-11T16:00:25.644Z,10.47
2022-11-11T16:02:55.609Z,9.90
2022-11-11T16:05:28.260Z,9.67
2022-11-11T16:08:01.510Z,11.10
2022-11-11T16:10:35.667Z,10.67
2022-11-11T16:13:20.975Z,10.77
2022-11-11T16:16:01.147Z,10.90
2022-11-11T16:18:33.427Z,9.37
2022-11-11T16:21:22.553Z,9.17
2022-11-11T16:23:51.194Z,8.30
2022-11-11T16:26:20.499Z,8.23
2022-11-11T16:28:53.896Z,8.37
2022-11-11T16:31:43.647Z,8.47
2022-11-11T16:34:27.555Z,7.87
2022-11-11T16:37:15.215Z,8.43
2022-11-11T16:39:44.772Z,8.77
2022-11-11T16:42:31.268Z,9.30
2022-11-11T16:45:01.407Z,9.53
2022-11-11T16:47:34.274Z,10.10
2022-11-11T16:50:05.937Z,9.63
2022-11-11T16:53:07.502Z,9.07
2022-11-11T16:55:45.691Z,8.83
2022-11-11T16:58:19.902Z,10.17
2022-11-11T17:00:48.169Z,12.87
2022-11-11T17:03:17.676Z,11.93
2022-11-11T17:06:08.347Z,11.90
2022-11-11T17:08:36.688Z,9.00
2022-11-11T17:11:32.343Z,9.00
2022-11-11T17:13:59.248Z,8.20
2022-11-11T17:16:26.513Z,8.30
2022-11-11T17:18:53.388Z,10.93
2022-11-11T17:21:20.320Z,10.87
2022-11-11T17:23:47.214Z,9.17
2022-11-11T17:26:14.118Z,9.40
2022-11-11T17:28:42.426Z,10.47
2022-11-11T17:31:11.986Z,11.60
2022-11-11T17:33:38.910Z,10.90
2022-11-11T17:38:47.200Z,10.67
2022-11-11T17:41:15.053Z,11.83
2022-11-11T17:43:42.046Z,10.77
2022-11-11T17:46:08.921Z,12.83
2022-11-11T17:48:35.809Z,13.13
2022-11-11T17:51:06.420Z,13.30
2022-11-11T17:53:36.787Z,13.10
2022-11-11T17:56:04.936Z,13.20
2022-11-11T17:58:34.653Z,12.77
2022-11-11T18:01:15.292Z,13.37
2022-11-11T18:03:42.872Z,12.77
2022-11-11T18:06:10.484Z,12.27
2022-11-11T18:08:38.238Z,12.10
2022-11-11T18:11:09.499Z,12.77
2022-11-11T18:13:36.492Z,13.17
2022-11-11T18:16:06.238Z,13.80
2022-11-11T18:18:33.763Z,13.93
2022-11-11T18:21:05.533Z,14.03
2022-11-11T18:23:34.871Z,13.47
2022-11-11T18:26:02.283Z,16.40
2022-11-11T18:28:38.631Z,17.47
2022-11-11T18:31:08.913Z,15.10
2022-11-11T18:33:37.307Z,14.73
2022-11-11T18:36:10.073Z,13.43
2022-11-11T18:38:37.409Z,15.17
2022-11-11T18:41:12.902Z,14.47
2022-11-11T18:43:44.446Z,13.27
2022-11-11T18:46:16.206Z,16.77
2022-11-11T18:48:44.064Z,15.10
2022-11-11T18:51:16.400Z,15.40
2022-11-11T18:53:43.554Z,14.37
2022-11-11T18:56:14.031Z,14.70
2022-11-11T18:58:40.956Z,14.80
2022-11-11T19:01:24.018Z,15.80
2022-11-11T19:04:07.354Z,15.43
2022-11-11T19:06:38.900Z,14.97
2022-11-11T19:09:09.204Z,14.87
2022-11-11T19:11:39.229Z,15.50
2022-11-11T19:14:07.152Z,14.93
2022-11-11T19:16:35.254Z,15.07
2022-11-11T19:19:02.796Z,15.23
2022-11-11T19:21:33.222Z,14.00
2022-11-11T19:24:01.149Z,14.80
2022-11-11T19:26:30.649Z,14.30
2022-11-11T19:28:59.993Z,14.07
2022-11-11T19:31:30.273Z,13.40
2022-11-11T19:33:58.807Z,14.53
2022-11-11T19:36:28.572Z,14.27
2022-11-11T19:39:00.124Z,15.80
2022-11-11T19:41:29.758Z,16.40
2022-11-11T19:43:56.961Z,16.37
2022-11-11T19:46:26.449Z,16.70
2022-11-11T19:48:56.351Z,15.50
2022-11-11T19:51:28.991Z,15.40
2022-11-11T19:53:57.372Z,15.80
2022-11-11T19:56:29.603Z,16.23
2022-11-11T19:58:57.189Z,16.47
2022-11-11T20:01:26.223Z,16.60
2022-11-11T20:03:53.414Z,16.83
2022-11-11T20:06:34.901Z,17.40
2022-11-11T20:09:08.130Z,17.43
2022-11-11T20:11:36.481Z,17.67
2022-11-11T20:14:05.317Z,19.53
2022-11-11T20:16:32.512Z,18.60
2022-11-11T20:19:00.860Z,16.60
2022-11-11T20:21:28.530Z,17.13
2022-11-11T20:23:55.854Z,19.33
2022-11-11T20:26:23.651Z,18.23
2022-11-11T20:28:58.622Z,17.27
2022-11-11T20:31:27.327Z,18.30
2022-11-11T20:33:55.384Z,18.00
2022-11-11T20:36:23.832Z,18.00
2022-11-11T20:38:51.074Z,17.67
2022-11-11T20:41:19.987Z,17.60
2022-11-11T20:43:47.744Z,17.33
2022-11-11T20:46:18.677Z,17.07
2022-11-11T20:48:49.140Z,17.60
2022-11-11T20:51:25.278Z,16.80
2022-11-11T20:53:57.295Z,17.13
2022-11-11T20:56:26.029Z,17.80
2022-11-11T20:58:54.463Z,17.10
2022-11-11T21:01:25.611Z,16.73
2022-11-11T21:03:58.595Z,17.60
2022-11-11T21:06:27.121Z,17.33
2022-11-11T21:08:54.319Z,17.10
2022-11-11T21:11:24.042Z,17.50
2022-11-11T21:13:55.537Z,17.57
2022-11-11T21:16:26.250Z,18.17
2022-11-11T21:18:54.722Z,17.33
2022-11-11T21:21:32.045Z,17.27
2022-11-11T21:24:07.002Z,16.87
2022-11-11T21:26:36.201Z,17.33
2022-11-11T21:29:04.602Z,16.80
2022-11-11T21:31:35.531Z,17.40
2022-11-11T21:34:06.301Z,16.47
2022-11-11T21:36:36.461Z,15.50
2022-11-11T21:39:05.660Z,14.83
2022-11-11T21:41:38.405Z,14.50
2022-11-11T21:44:08.430Z,14.27
2022-11-11T21:46:37.997Z,13.10
2022-11-11T21:49:05.622Z,14.03
2022-11-11T21:51:35.347Z,14.13
2022-11-11T21:54:07.017Z,13.57
2022-11-11T21:56:36.247Z,13.87
2022-11-11T21:59:06.547Z,14.57
2022-11-11T22:01:39.917Z,13.60
2022-11-11T22:04:11.474Z,14.47
2022-11-11T22:06:39.225Z,13.73
2022-11-11T22:09:07.552Z,13.53
2022-11-11T22:11:36.680Z,13.97
2022-11-11T22:14:05.796Z,13.27
2022-11-11T22:16:36.155Z,13.97
2022-11-11T22:19:12.575Z,13.40
2022-11-11T22:21:41.162Z,13.23
2022-11-11T22:24:10.769Z,12.57
2022-11-11T22:26:42.160Z,12.47
2022-11-11T22:29:11.522Z,12.77
2022-11-11T22:31:40.412Z,12.50
2022-11-11T22:34:10.461Z,12.00
2022-11-11T22:36:39.310Z,12.07
2022-11-11T22:39:08.559Z,11.93
2022-11-11T22:41:40.351Z,11.97
2022-11-11T22:44:07.618Z,11.43
2022-11-11T22:46:35.777Z,11.17
2022-11-11T22:49:06.603Z,11.50
2022-11-11T22:51:34.432Z,11.27
2022-11-11T22:54:06.302Z,11.00
2022-11-11T22:56:35.432Z,11.60
2022-11-11T22:59:05.744Z,10.87
2022-11-11T23:01:33.818Z,12.23
2022-11-11T23:04:03.398Z,11.97
2022-11-11T23:06:36.090Z,12.03
2022-11-11T23:09:05.175Z,12.00
2022-11-11T23:11:34.357Z,11.83
2022-11-11T23:14:04.521Z,11.43
2022-11-11T23:16:32.254Z,12.10
2022-11-11T23:19:00.284Z,11.13
2022-11-11T23:21:29.080Z,11.10
2022-11-11T23:23:58.010Z,9.67
2022-11-11T23:26:29.350Z,10.07
2022-11-11T23:28:56.802Z,9.17
2022-11-11T23:31:30.482Z,9.43
2022-11-11T23:34:01.170Z,10.07
2022-11-11T23:36:35.204Z,9.77
2022-11-11T23:39:02.985Z,9.23
2022-11-11T23:41:29.974Z,9.43
2022-11-11T23:43:57.003Z,9.53
2022-11-11T23:46:23.941Z,9.13
2022-11-11T23:48:50.903Z,7.90
2022-11-11T23:51:18.724Z,8.23
2022-11-11T23:53:45.620Z,7.47
2022-11-11T23:56:12.743Z,8.33
2022-11-11T23:58:39.646Z,8.43
